KGCN

Grand Canyon National Park Airport

Grand Canyon, Arizona, USA
METAR KGCN 220454Z AUTO 24006KT 10SM CLR 21/M06 A3020 RMK AO2 SLP103 T02061061
Observed Flight Rules
Jun-22 @ 04:54 UTC (35 minutes ago) Visual Flight Rules
Wind Visibility Clouds
240° at 6 knots 10 miles
  • Clear skies
Temperatures Readings
Current 21°C / 70°F
Dewpoint -6°C / 21°F
Humidity 16%
Altimeter 30.2" Hg
Pressure 1010.3 hPa
Elevation 2016
METAR KGCN 220454Z AUTO 24006KT 10SM CLR 21/M06 A3020 RMK AO2 SLP103 T02061061
Observed Flight Rules
Jun-22 @ 04:54 UTC
(35 minutes ago)
VFR
Wind Visibility
240° at 6 knots 10 miles
Clouds
  • Clear skies
Temperature Dewpoint
21°C / 70°F -6°C / 21°F
Humidity Altimeter Pressure
16% 30.2" Hg 1010.3 hPa